WMKP/PEN METAR and TAF weather

Enter ICAO airport designator
Station Type Date Time Source
WMKP METAR 2019/04/25 07:30 UTC NOAA

WMKP 250730Z 24010KT 210V300 8000 SCT020 SCT140 BKN270 34/26 Q1006 NOSIG


Station Type Date Time Source
WMKP Decoded METAR 2019/04/25 07:30 UTC NOAA

Penang / Bayan Lepas, Malaysia (WMKP) 05-18N 100-16E 4M
Apr 25, 2019 - 03:30 AM EDT / 2019.04.25 0730 UTC
Wind: from the WSW (240 degrees) at 12 MPH (10 KT) (direction variable):0
Visibility: 4 mile(s):0
Sky conditions: mostly cloudy
Temperature: 93 F (34 C)
Heat index: 109.6 F (43.1 C):1
Dew Point: 78 F (26 C)
Relative Humidity: 63%
Pressure (altimeter): 29.71 in. Hg (1006 hPa)
ob: WMKP 250730Z 24010KT 210V300 8000 SCT020 SCT140 BKN270 34/26 Q1006 NOSIG
cycle: 7

Station Type Date Time Source
WMKP TAF 2019/04/25 06:12 UTC NOAA

TAF WMKP 250500Z 2506/2606 24007KT 7000 FEW020 SCT140 BKN270
BECMG 2510/2512 VRB03KT 9000 FEW025 PROB30
TEMPO 2514/2520 5000 TSRA FEW010 FEW017CB

Example: see airport list